sensor_id;sensor_type;location;lat;lon;timestamp;P1;durP1;ratioP1;P2;durP2;ratioP2
34982;SDS011;21187;50.976;13.720;2022-09-13T00:04:57;4.15;;;2.70;;
34982;SDS011;21187;50.976;13.720;2022-09-13T00:09:59;3.97;;;2.25;;
34982;SDS011;21187;50.976;13.720;2022-09-13T00:15:01;5.32;;;2.47;;
34982;SDS011;21187;50.976;13.720;2022-09-13T00:20:03;5.65;;;2.97;;
34982;SDS011;21187;50.976;13.720;2022-09-13T00:25:05;4.68;;;2.45;;
34982;SDS011;21187;50.976;13.720;2022-09-13T00:30:08;6.60;;;3.10;;
34982;SDS011;21187;50.976;13.720;2022-09-13T00:35:10;5.35;;;2.95;;
34982;SDS011;21187;50.976;13.720;2022-09-13T00:40:12;4.95;;;3.25;;
34982;SDS011;21187;50.976;13.720;2022-09-13T00:45:15;5.53;;;3.30;;
34982;SDS011;21187;50.976;13.720;2022-09-13T00:50:21;5.93;;;3.20;;
34982;SDS011;21187;50.976;13.720;2022-09-13T00:55:35;3.90;;;2.83;;
34982;SDS011;21187;50.976;13.720;2022-09-13T01:00:42;4.97;;;3.25;;
34982;SDS011;21187;50.976;13.720;2022-09-13T01:05:46;5.07;;;2.92;;
34982;SDS011;21187;50.976;13.720;2022-09-13T01:10:53;4.95;;;3.28;;
34982;SDS011;21187;50.976;13.720;2022-09-13T01:16:00;7.18;;;3.63;;
34982;SDS011;21187;50.976;13.720;2022-09-13T01:36:36;10.05;;;3.88;;
34982;SDS011;21187;50.976;13.720;2022-09-13T01:41:54;5.80;;;3.58;;
34982;SDS011;21187;50.976;13.720;2022-09-13T01:47:14;10.13;;;3.65;;
34982;SDS011;21187;50.976;13.720;2022-09-13T01:52:33;6.68;;;3.90;;
34982;SDS011;21187;50.976;13.720;2022-09-13T01:57:55;6.15;;;3.67;;
34982;SDS011;21187;50.976;13.720;2022-09-13T02:03:32;8.60;;;3.08;;
34982;SDS011;21187;50.976;13.720;2022-09-13T02:08:41;9.77;;;3.45;;
34982;SDS011;21187;50.976;13.720;2022-09-13T02:24:08;4.88;;;3.15;;
34982;SDS011;21187;50.976;13.720;2022-09-13T02:29:15;6.65;;;3.10;;
34982;SDS011;21187;50.976;13.720;2022-09-13T02:34:21;6.88;;;3.22;;
34982;SDS011;21187;50.976;13.720;2022-09-13T02:39:26;4.45;;;2.63;;
34982;SDS011;21187;50.976;13.720;2022-09-13T02:44:37;4.45;;;2.60;;
34982;SDS011;21187;50.976;13.720;2022-09-13T02:49:47;5.03;;;2.97;;
34982;SDS011;21187;50.976;13.720;2022-09-13T02:54:53;6.47;;;2.95;;
34982;SDS011;21187;50.976;13.720;2022-09-13T03:00:04;6.05;;;2.80;;
34982;SDS011;21187;50.976;13.720;2022-09-13T03:05:07;7.60;;;2.97;;
34982;SDS011;21187;50.976;13.720;2022-09-13T03:10:09;4.93;;;2.58;;
34982;SDS011;21187;50.976;13.720;2022-09-13T03:15:27;5.57;;;3.22;;
34982;SDS011;21187;50.976;13.720;2022-09-13T03:26:14;3.80;;;2.75;;
34982;SDS011;21187;50.976;13.720;2022-09-13T03:36:54;4.47;;;2.80;;
34982;SDS011;21187;50.976;13.720;2022-09-13T03:41:57;6.63;;;2.65;;
34982;SDS011;21187;50.976;13.720;2022-09-13T03:47:08;8.15;;;4.60;;
34982;SDS011;21187;50.976;13.720;2022-09-13T03:52:12;31.90;;;8.48;;
34982;SDS011;21187;50.976;13.720;2022-09-13T03:57:18;56.13;;;15.85;;
34982;SDS011;21187;50.976;13.720;2022-09-13T04:02:24;14.57;;;4.57;;
34982;SDS011;21187;50.976;13.720;2022-09-13T04:07:26;23.70;;;8.40;;
34982;SDS011;21187;50.976;13.720;2022-09-13T04:12:28;16.25;;;6.18;;
34982;SDS011;21187;50.976;13.720;2022-09-13T04:17:32;9.32;;;3.55;;
34982;SDS011;21187;50.976;13.720;2022-09-13T04:22:34;13.82;;;4.30;;
34982;SDS011;21187;50.976;13.720;2022-09-13T04:27:36;9.73;;;3.17;;
34982;SDS011;21187;50.976;13.720;2022-09-13T04:32:37;5.13;;;3.17;;
34982;SDS011;21187;50.976;13.720;2022-09-13T04:37:39;6.63;;;3.42;;
34982;SDS011;21187;50.976;13.720;2022-09-13T04:42:44;5.97;;;3.10;;
34982;SDS011;21187;50.976;13.720;2022-09-13T04:47:52;5.30;;;2.95;;
34982;SDS011;21187;50.976;13.720;2022-09-13T04:52:55;4.88;;;3.25;;
34982;SDS011;21187;50.976;13.720;2022-09-13T04:57:57;7.10;;;3.47;;
34982;SDS011;21187;50.976;13.720;2022-09-13T05:02:59;8.13;;;3.38;;
34982;SDS011;21187;50.976;13.720;2022-09-13T05:08:01;6.70;;;3.85;;
34982;SDS011;21187;50.976;13.720;2022-09-13T05:13:02;7.75;;;3.55;;
34982;SDS011;21187;50.976;13.720;2022-09-13T05:18:04;7.35;;;3.88;;
34982;SDS011;21187;50.976;13.720;2022-09-13T05:23:06;6.28;;;3.80;;
34982;SDS011;21187;50.976;13.720;2022-09-13T05:28:08;7.68;;;3.85;;
34982;SDS011;21187;50.976;13.720;2022-09-13T05:33:10;6.57;;;3.30;;
34982;SDS011;21187;50.976;13.720;2022-09-13T05:38:11;5.55;;;3.47;;
34982;SDS011;21187;50.976;13.720;2022-09-13T05:43:13;7.57;;;4.28;;
34982;SDS011;21187;50.976;13.720;2022-09-13T05:48:15;6.35;;;4.13;;
34982;SDS011;21187;50.976;13.720;2022-09-13T05:53:17;5.88;;;3.13;;
34982;SDS011;21187;50.976;13.720;2022-09-13T05:58:19;7.28;;;3.80;;
34982;SDS011;21187;50.976;13.720;2022-09-13T06:03:22;5.47;;;3.50;;
34982;SDS011;21187;50.976;13.720;2022-09-13T06:08:25;7.18;;;3.20;;
34982;SDS011;21187;50.976;13.720;2022-09-13T06:13:29;9.18;;;4.28;;
34982;SDS011;21187;50.976;13.720;2022-09-13T06:18:31;7.43;;;3.67;;
34982;SDS011;21187;50.976;13.720;2022-09-13T06:23:34;7.10;;;3.60;;
34982;SDS011;21187;50.976;13.720;2022-09-13T06:28:36;7.88;;;3.60;;
34982;SDS011;21187;50.976;13.720;2022-09-13T06:33:39;5.13;;;3.47;;
34982;SDS011;21187;50.976;13.720;2022-09-13T06:38:43;5.07;;;3.20;;
34982;SDS011;21187;50.976;13.720;2022-09-13T06:43:46;5.03;;;3.05;;
34982;SDS011;21187;50.976;13.720;2022-09-13T06:48:48;3.97;;;2.90;;
34982;SDS011;21187;50.976;13.720;2022-09-13T06:53:51;3.95;;;2.90;;
34982;SDS011;21187;50.976;13.720;2022-09-13T06:58:57;6.38;;;4.15;;
34982;SDS011;21187;50.976;13.720;2022-09-13T07:04:05;5.00;;;3.17;;
34982;SDS011;21187;50.976;13.720;2022-09-13T07:09:13;5.60;;;3.15;;
34982;SDS011;21187;50.976;13.720;2022-09-13T07:14:22;7.38;;;3.17;;
34982;SDS011;21187;50.976;13.720;2022-09-13T07:19:26;4.15;;;2.80;;
34982;SDS011;21187;50.976;13.720;2022-09-13T07:24:29;7.22;;;3.20;;
34982;SDS011;21187;50.976;13.720;2022-09-13T07:29:30;7.30;;;2.25;;
34982;SDS011;21187;50.976;13.720;2022-09-13T07:34:32;5.50;;;2.88;;
34982;SDS011;21187;50.976;13.720;2022-09-13T07:39:34;4.75;;;2.53;;
34982;SDS011;21187;50.976;13.720;2022-09-13T07:44:36;4.25;;;2.90;;
34982;SDS011;21187;50.976;13.720;2022-09-13T07:49:40;7.28;;;2.50;;
34982;SDS011;21187;50.976;13.720;2022-09-13T07:54:42;4.85;;;2.67;;
34982;SDS011;21187;50.976;13.720;2022-09-13T07:59:43;4.60;;;2.75;;
34982;SDS011;21187;50.976;13.720;2022-09-13T08:04:45;4.45;;;2.70;;
34982;SDS011;21187;50.976;13.720;2022-09-13T08:09:47;12.52;;;3.30;;
34982;SDS011;21187;50.976;13.720;2022-09-13T08:14:49;6.13;;;2.90;;
34982;SDS011;21187;50.976;13.720;2022-09-13T08:19:51;5.50;;;3.47;;
34982;SDS011;21187;50.976;13.720;2022-09-13T08:24:53;7.13;;;3.20;;
34982;SDS011;21187;50.976;13.720;2022-09-13T08:29:55;4.93;;;3.15;;
34982;SDS011;21187;50.976;13.720;2022-09-13T08:34:57;5.43;;;3.47;;
34982;SDS011;21187;50.976;13.720;2022-09-13T08:39:58;4.75;;;2.80;;
34982;SDS011;21187;50.976;13.720;2022-09-13T08:45:00;4.82;;;3.15;;
34982;SDS011;21187;50.976;13.720;2022-09-13T08:50:09;9.05;;;3.92;;
34982;SDS011;21187;50.976;13.720;2022-09-13T08:56:03;7.55;;;3.05;;
34982;SDS011;21187;50.976;13.720;2022-09-13T09:06:21;8.75;;;3.25;;
34982;SDS011;21187;50.976;13.720;2022-09-13T09:11:28;5.32;;;3.67;;
34982;SDS011;21187;50.976;13.720;2022-09-13T09:21:40;6.05;;;3.15;;
34982;SDS011;21187;50.976;13.720;2022-09-13T09:26:45;4.55;;;2.55;;
34982;SDS011;21187;50.976;13.720;2022-09-13T09:37:10;7.07;;;2.67;;
34982;SDS011;21187;50.976;13.720;2022-09-13T09:42:23;4.30;;;2.92;;
34982;SDS011;21187;50.976;13.720;2022-09-13T09:47:30;4.18;;;2.70;;
34982;SDS011;21187;50.976;13.720;2022-09-13T09:52:47;5.78;;;2.97;;
34982;SDS011;21187;50.976;13.720;2022-09-13T09:58:03;9.50;;;3.40;;
34982;SDS011;21187;50.976;13.720;2022-09-13T10:03:07;4.93;;;2.92;;
34982;SDS011;21187;50.976;13.720;2022-09-13T10:08:25;10.65;;;3.10;;
34982;SDS011;21187;50.976;13.720;2022-09-13T10:13:31;3.72;;;2.50;;
34982;SDS011;21187;50.976;13.720;2022-09-13T10:18:34;4.72;;;2.83;;
34982;SDS011;21187;50.976;13.720;2022-09-13T10:23:46;4.40;;;2.35;;
34982;SDS011;21187;50.976;13.720;2022-09-13T10:54:49;3.50;;;2.47;;
34982;SDS011;21187;50.976;13.720;2022-09-13T10:59:51;3.83;;;2.40;;
34982;SDS011;21187;50.976;13.720;2022-09-13T11:05:16;2.17;;;1.63;;
34982;SDS011;21187;50.976;13.720;2022-09-13T11:10:40;3.80;;;2.10;;
34982;SDS011;21187;50.976;13.720;2022-09-13T11:42:54;2.58;;;1.80;;
34982;SDS011;21187;50.976;13.720;2022-09-13T11:54:31;3.92;;;2.28;;
34982;SDS011;21187;50.976;13.720;2022-09-13T11:59:43;2.42;;;1.48;;
34982;SDS011;21187;50.976;13.720;2022-09-13T12:04:58;4.32;;;1.90;;
34982;SDS011;21187;50.976;13.720;2022-09-13T12:10:24;2.10;;;1.60;;
34982;SDS011;21187;50.976;13.720;2022-09-13T12:20:39;2.30;;;1.48;;
34982;SDS011;21187;50.976;13.720;2022-09-13T12:30:54;2.72;;;1.58;;
34982;SDS011;21187;50.976;13.720;2022-09-13T12:42:03;1.88;;;1.42;;
34982;SDS011;21187;50.976;13.720;2022-09-13T12:47:28;1.75;;;1.15;;
34982;SDS011;21187;50.976;13.720;2022-09-13T13:03:31;1.92;;;1.40;;
34982;SDS011;21187;50.976;13.720;2022-09-13T13:08:37;5.35;;;1.70;;
34982;SDS011;21187;50.976;13.720;2022-09-13T13:18:57;4.55;;;1.40;;
34982;SDS011;21187;50.976;13.720;2022-09-13T13:59:55;2.10;;;1.17;;
34982;SDS011;21187;50.976;13.720;2022-09-13T14:05:12;2.80;;;1.20;;
34982;SDS011;21187;50.976;13.720;2022-09-13T14:15:52;2.88;;;1.30;;
34982;SDS011;21187;50.976;13.720;2022-09-13T14:26:27;2.95;;;1.00;;
34982;SDS011;21187;50.976;13.720;2022-09-13T14:31:29;4.68;;;1.30;;
34982;SDS011;21187;50.976;13.720;2022-09-13T14:36:31;2.22;;;1.38;;
34982;SDS011;21187;50.976;13.720;2022-09-13T14:41:33;1.10;;;1.00;;
34982;SDS011;21187;50.976;13.720;2022-09-13T14:46:38;1.95;;;1.10;;
34982;SDS011;21187;50.976;13.720;2022-09-13T14:51:48;1.30;;;1.20;;
34982;SDS011;21187;50.976;13.720;2022-09-13T14:56:56;6.63;;;1.33;;
34982;SDS011;21187;50.976;13.720;2022-09-13T15:02:04;4.93;;;1.35;;
34982;SDS011;21187;50.976;13.720;2022-09-13T15:07:28;5.95;;;3.03;;
34982;SDS011;21187;50.976;13.720;2022-09-13T15:23:47;2.38;;;1.58;;
34982;SDS011;21187;50.976;13.720;2022-09-13T15:33:43;4.47;;;1.52;;
34982;SDS011;21187;50.976;13.720;2022-09-13T15:44:09;3.70;;;1.60;;
34982;SDS011;21187;50.976;13.720;2022-09-13T15:49:14;1.73;;;1.35;;
34982;SDS011;21187;50.976;13.720;2022-09-13T15:54:18;3.08;;;1.35;;
34982;SDS011;21187;50.976;13.720;2022-09-13T15:59:23;3.67;;;2.50;;
34982;SDS011;21187;50.976;13.720;2022-09-13T16:04:24;2.20;;;1.55;;
34982;SDS011;21187;50.976;13.720;2022-09-13T16:09:26;2.70;;;1.20;;
34982;SDS011;21187;50.976;13.720;2022-09-13T16:14:28;6.10;;;1.63;;
34982;SDS011;21187;50.976;13.720;2022-09-13T16:19:30;1.73;;;1.48;;
34982;SDS011;21187;50.976;13.720;2022-09-13T16:24:32;2.22;;;1.30;;
34982;SDS011;21187;50.976;13.720;2022-09-13T16:29:34;2.75;;;1.90;;
34982;SDS011;21187;50.976;13.720;2022-09-13T16:34:36;2.08;;;1.77;;
34982;SDS011;21187;50.976;13.720;2022-09-13T16:39:38;1.83;;;1.17;;
34982;SDS011;21187;50.976;13.720;2022-09-13T16:44:40;2.20;;;1.50;;
34982;SDS011;21187;50.976;13.720;2022-09-13T16:49:42;4.75;;;1.17;;
34982;SDS011;21187;50.976;13.720;2022-09-13T16:54:44;2.38;;;1.40;;
34982;SDS011;21187;50.976;13.720;2022-09-13T16:59:49;3.45;;;1.50;;
34982;SDS011;21187;50.976;13.720;2022-09-13T17:04:53;4.82;;;1.30;;
34982;SDS011;21187;50.976;13.720;2022-09-13T17:09:54;2.50;;;1.42;;
34982;SDS011;21187;50.976;13.720;2022-09-13T17:14:57;3.83;;;1.45;;
34982;SDS011;21187;50.976;13.720;2022-09-13T17:20:02;2.72;;;1.33;;
34982;SDS011;21187;50.976;13.720;2022-09-13T17:25:07;2.05;;;1.42;;
34982;SDS011;21187;50.976;13.720;2022-09-13T17:30:09;3.30;;;1.58;;
34982;SDS011;21187;50.976;13.720;2022-09-13T17:35:12;6.15;;;1.70;;
34982;SDS011;21187;50.976;13.720;2022-09-13T17:40:14;2.53;;;1.55;;
34982;SDS011;21187;50.976;13.720;2022-09-13T17:45:16;4.57;;;2.08;;
34982;SDS011;21187;50.976;13.720;2022-09-13T17:50:18;2.75;;;1.55;;
34982;SDS011;21187;50.976;13.720;2022-09-13T17:55:20;4.22;;;2.00;;
34982;SDS011;21187;50.976;13.720;2022-09-13T18:00:22;7.38;;;2.10;;
34982;SDS011;21187;50.976;13.720;2022-09-13T18:05:24;3.70;;;2.30;;
34982;SDS011;21187;50.976;13.720;2022-09-13T18:10:26;7.15;;;2.28;;
34982;SDS011;21187;50.976;13.720;2022-09-13T18:15:58;3.85;;;2.15;;
34982;SDS011;21187;50.976;13.720;2022-09-13T18:21:01;2.40;;;1.98;;
34982;SDS011;21187;50.976;13.720;2022-09-13T18:26:04;5.78;;;2.58;;
34982;SDS011;21187;50.976;13.720;2022-09-13T18:31:15;5.13;;;3.38;;
34982;SDS011;21187;50.976;13.720;2022-09-13T18:36:18;4.43;;;2.90;;
34982;SDS011;21187;50.976;13.720;2022-09-13T18:41:29;4.72;;;2.78;;
34982;SDS011;21187;50.976;13.720;2022-09-13T18:46:35;4.07;;;2.10;;
34982;SDS011;21187;50.976;13.720;2022-09-13T18:51:39;8.40;;;2.08;;
34982;SDS011;21187;50.976;13.720;2022-09-13T18:56:44;3.47;;;2.30;;
34982;SDS011;21187;50.976;13.720;2022-09-13T19:01:46;3.95;;;1.92;;
34982;SDS011;21187;50.976;13.720;2022-09-13T19:06:50;6.13;;;1.83;;
34982;SDS011;21187;50.976;13.720;2022-09-13T19:11:54;3.05;;;2.13;;
34982;SDS011;21187;50.976;13.720;2022-09-13T19:16:57;3.30;;;1.90;;
34982;SDS011;21187;50.976;13.720;2022-09-13T19:22:03;3.08;;;2.00;;
34982;SDS011;21187;50.976;13.720;2022-09-13T19:27:05;3.55;;;2.20;;
34982;SDS011;21187;50.976;13.720;2022-09-13T19:32:07;3.63;;;2.00;;
34982;SDS011;21187;50.976;13.720;2022-09-13T19:37:09;5.72;;;2.08;;
34982;SDS011;21187;50.976;13.720;2022-09-13T19:42:11;2.85;;;1.90;;
34982;SDS011;21187;50.976;13.720;2022-09-13T19:47:13;2.58;;;1.70;;
34982;SDS011;21187;50.976;13.720;2022-09-13T19:52:36;3.00;;;1.88;;
34982;SDS011;21187;50.976;13.720;2022-09-13T19:57:38;3.47;;;2.00;;
34982;SDS011;21187;50.976;13.720;2022-09-13T20:02:46;5.05;;;2.00;;
34982;SDS011;21187;50.976;13.720;2022-09-13T20:07:48;3.65;;;2.15;;
34982;SDS011;21187;50.976;13.720;2022-09-13T20:12:50;6.72;;;2.33;;
34982;SDS011;21187;50.976;13.720;2022-09-13T20:17:54;2.92;;;1.88;;
34982;SDS011;21187;50.976;13.720;2022-09-13T20:22:56;7.03;;;2.00;;
34982;SDS011;21187;50.976;13.720;2022-09-13T20:27:58;3.25;;;2.00;;
34982;SDS011;21187;50.976;13.720;2022-09-13T20:33:01;5.05;;;1.77;;
34982;SDS011;21187;50.976;13.720;2022-09-13T20:38:04;5.78;;;2.00;;
34982;SDS011;21187;50.976;13.720;2022-09-13T20:43:06;3.38;;;1.92;;
34982;SDS011;21187;50.976;13.720;2022-09-13T20:48:08;4.20;;;2.08;;
34982;SDS011;21187;50.976;13.720;2022-09-13T20:53:12;6.85;;;2.20;;
34982;SDS011;21187;50.976;13.720;2022-09-13T20:58:14;3.38;;;2.25;;
34982;SDS011;21187;50.976;13.720;2022-09-13T21:03:17;3.38;;;2.33;;
34982;SDS011;21187;50.976;13.720;2022-09-13T21:08:19;6.20;;;2.45;;
34982;SDS011;21187;50.976;13.720;2022-09-13T21:13:41;3.40;;;2.15;;
34982;SDS011;21187;50.976;13.720;2022-09-13T21:18:45;3.55;;;2.30;;
34982;SDS011;21187;50.976;13.720;2022-09-13T21:23:48;7.60;;;2.75;;
34982;SDS011;21187;50.976;13.720;2022-09-13T21:28:50;5.93;;;2.67;;
34982;SDS011;21187;50.976;13.720;2022-09-13T21:33:52;4.13;;;2.70;;
34982;SDS011;21187;50.976;13.720;2022-09-13T21:38:59;6.78;;;3.20;;
34982;SDS011;21187;50.976;13.720;2022-09-13T21:44:01;4.95;;;2.92;;
34982;SDS011;21187;50.976;13.720;2022-09-13T21:49:05;6.10;;;3.10;;
34982;SDS011;21187;50.976;13.720;2022-09-13T21:54:10;4.72;;;2.83;;
34982;SDS011;21187;50.976;13.720;2022-09-13T21:59:18;7.72;;;2.78;;
34982;SDS011;21187;50.976;13.720;2022-09-13T22:04:23;7.05;;;2.70;;
34982;SDS011;21187;50.976;13.720;2022-09-13T22:09:28;7.82;;;3.00;;
34982;SDS011;21187;50.976;13.720;2022-09-13T22:14:29;8.95;;;3.40;;
34982;SDS011;21187;50.976;13.720;2022-09-13T22:19:31;7.60;;;3.08;;
34982;SDS011;21187;50.976;13.720;2022-09-13T22:24:33;5.97;;;3.80;;
34982;SDS011;21187;50.976;13.720;2022-09-13T22:29:36;8.40;;;3.80;;
34982;SDS011;21187;50.976;13.720;2022-09-13T22:34:38;5.18;;;3.50;;
34982;SDS011;21187;50.976;13.720;2022-09-13T22:39:41;8.10;;;3.35;;
34982;SDS011;21187;50.976;13.720;2022-09-13T22:44:43;5.63;;;3.08;;
34982;SDS011;21187;50.976;13.720;2022-09-13T22:49:45;5.15;;;2.95;;
34982;SDS011;21187;50.976;13.720;2022-09-13T22:54:46;8.23;;;3.47;;
34982;SDS011;21187;50.976;13.720;2022-09-13T22:59:51;7.13;;;2.90;;
34982;SDS011;21187;50.976;13.720;2022-09-13T23:04:53;5.25;;;3.15;;
34982;SDS011;21187;50.976;13.720;2022-09-13T23:09:54;8.73;;;2.80;;
34982;SDS011;21187;50.976;13.720;2022-09-13T23:14:56;4.22;;;2.90;;
34982;SDS011;21187;50.976;13.720;2022-09-13T23:19:58;5.47;;;3.45;;
34982;SDS011;21187;50.976;13.720;2022-09-13T23:25:00;9.63;;;4.20;;
34982;SDS011;21187;50.976;13.720;2022-09-13T23:30:02;6.75;;;3.63;;
34982;SDS011;21187;50.976;13.720;2022-09-13T23:35:04;9.65;;;3.70;;
34982;SDS011;21187;50.976;13.720;2022-09-13T23:40:06;6.85;;;3.47;;
34982;SDS011;21187;50.976;13.720;2022-09-13T23:45:08;11.63;;;3.75;;
34982;SDS011;21187;50.976;13.720;2022-09-13T23:50:10;7.50;;;3.92;;
34982;SDS011;21187;50.976;13.720;2022-09-13T23:55:12;9.45;;;3.75;;
